Terminal Aerodrome Forecast
Issued by NWS

Home | Current Version | Previous Version | Text Only | Print | Product List | Glossary On
Versions: 1 2 3 4 5 6 7 8 9 10 11 12 13 14 15 16 17 18 19 20 21 22 23 24 25
000
FTUS46 KLOX 221700
TAFLGB
TAF
KLGB 221738Z 2218/2318 00000KT 6SM HZ SKC
     FM222000 19007KT P6SM SKC
     FM222300 29008KT P6SM SKC
     FM230300 VRB03KT P6SM SKC
     FM231100 VRB03KT P6SM BKN008=

USA.gov is the U.S. government's official web portal to all federal, state and local government web resources and services.